Thousand Oaks, CA (91360)

11:12 AM PST on December 06, 2016 (GMT -0800)
Markham Ave | | Change Station

Elev 787 ft 34.21 °N, 118.88 °W | Updated 31 seconds ago

Haze
Haze
59.5 °F
Feels Like 59.5 °F
N
0.0
Wind Variable Wind from West
Gusts 0.0 mph

Today
High -- | Low -- °F
--% Chance of Precip.
Yesterday
High -- | Low -- °F
Precip. -- in
Pressure 30.04 in
Visibility 5.0 miles
Clouds Scattered Clouds 3800 ft
Dew Point 47 °F
Humidity 62%
Rainfall 0.00 in
Snow Depth Not available.
6:47 AM 4:45 PM
Waxing Crescent, 44% visible
METAR KCMA 061855Z 28005KT 5SM HZ SCT038 16/10 A3001 RMK AO2 SLP171 T01610100 $
Pressure 30.04 in
Visibility 5.0 miles
Clouds Scattered Clouds 3800 ft
Dew Point 47 °F
Humidity 62%
Rainfall 0.00 in
Snow Depth Not available.
6:47 AM 4:45 PM
Waxing Crescent, 44% visible
METAR KCMA 061855Z 28005KT 5SM HZ SCT038 16/10 A3001 RMK AO2 SLP171 T01610100 $

10-Day Weather Forecast

Almanac

Astronomy

Dec. 06, 2016 Rise Set
Actual Time
Civil Twilight
Nautical Twilight
Astronomical Twilight
Moon
Length of Visible Light
Length of Day
Tomorrow will be .
, % of the Moon is Illuminated

Today's Extremes

State Highs State Lows

Community

WunderPhotos

Upload Photos

1,955,986 photos uploaded!

WunderBlog® & News

Nearby

Air Quality

  Air Quality AQ Index Pollutant
Not available.

Snow Depth

Station Depth Elevation

Earthquake Activity

City Distance Mag. Time & Date
Minimum magnitude displayed is 2.5.

Coastal Water Temperatures

Place Temperature

Stations

Nearby Weather Stations

Station Location Temp. Windchill Dew Point Humidity Wind Precip. Elev Updated Type
                   

Watches & Warnings

There are currently no watches in effect.